createdAt,value
2019-03-17T00:00:32.477Z,10.50
2019-03-17T00:02:36.476Z,10.50
2019-03-17T00:04:40.713Z,10.50
2019-03-17T00:06:44.624Z,10.50
2019-03-17T00:08:48.574Z,10.50
2019-03-17T00:11:06.773Z,10.50
2019-03-17T00:13:11.976Z,10.50
2019-03-17T00:15:16.018Z,10.50
2019-03-17T00:17:19.904Z,10.60
2019-03-17T00:19:23.855Z,10.50
2019-03-17T00:21:28.055Z,10.50
2019-03-17T00:23:32.040Z,10.50
2019-03-17T00:25:35.888Z,10.50
2019-03-17T00:27:40.095Z,10.50
2019-03-17T00:29:43.964Z,10.50
2019-03-17T00:31:47.920Z,10.50
2019-03-17T00:33:51.857Z,10.60
2019-03-17T00:35:55.799Z,10.60
2019-03-17T00:37:59.753Z,10.60
2019-03-17T00:40:04.395Z,10.60
2019-03-17T00:42:08.409Z,10.60
2019-03-17T00:44:12.287Z,10.60
2019-03-17T00:46:16.610Z,10.60
2019-03-17T00:48:39.874Z,10.60
2019-03-17T00:50:43.810Z,10.70
2019-03-17T00:52:53.935Z,10.60
2019-03-17T00:54:57.821Z,10.60
2019-03-17T00:57:01.937Z,10.60
2019-03-17T00:59:05.932Z,10.70
2019-03-17T01:01:09.815Z,10.60
2019-03-17T01:03:13.875Z,10.60
2019-03-17T01:05:17.827Z,10.70
2019-03-17T01:07:21.851Z,10.70
2019-03-17T01:09:25.788Z,10.70
2019-03-17T01:11:29.740Z,10.60
2019-03-17T01:13:33.951Z,10.60
2019-03-17T01:15:37.968Z,10.70
2019-03-17T01:17:41.964Z,10.60
2019-03-17T01:19:46.042Z,10.60
2019-03-17T01:21:49.911Z,10.60
2019-03-17T01:23:53.759Z,10.60
2019-03-17T01:25:57.643Z,10.60
2019-03-17T01:28:01.637Z,10.60
2019-03-17T01:30:06.226Z,10.60
2019-03-17T01:32:10.123Z,10.60
2019-03-17T01:34:14.129Z,10.60
2019-03-17T01:36:17.973Z,10.60
2019-03-17T01:38:22.007Z,10.60
2019-03-17T01:40:25.947Z,10.60
2019-03-17T01:42:29.983Z,10.60
2019-03-17T01:44:33.891Z,10.60
2019-03-17T01:46:37.835Z,10.60
2019-03-17T01:48:41.719Z,10.60
2019-03-17T01:50:45.615Z,10.60
2019-03-17T01:52:49.587Z,10.60
2019-03-17T01:54:54.883Z,10.60
2019-03-17T01:56:58.759Z,10.60
2019-03-17T01:59:02.776Z,10.60
2019-03-17T02:01:06.745Z,10.60
2019-03-17T02:03:10.924Z,10.60
2019-03-17T02:05:22.022Z,10.60
2019-03-17T02:07:20.511Z,10.60
2019-03-17T02:09:24.407Z,10.60
2019-03-17T02:11:28.343Z,10.60
2019-03-17T02:13:32.448Z,10.60
2019-03-17T02:15:36.351Z,10.60
2019-03-17T02:17:40.218Z,10.60
2019-03-17T02:19:44.213Z,10.60
2019-03-17T02:21:48.071Z,10.60
2019-03-17T02:23:51.958Z,10.60
2019-03-17T02:25:55.791Z,10.60
2019-03-17T02:27:59.642Z,10.60
2019-03-17T02:30:03.854Z,10.60
2019-03-17T02:32:07.781Z,10.60
2019-03-17T02:34:12.293Z,10.70
2019-03-17T02:36:16.472Z,10.60
2019-03-17T02:38:20.319Z,10.70
2019-03-17T02:40:24.561Z,10.70
2019-03-17T02:42:28.843Z,10.60
2019-03-17T02:44:32.854Z,10.60
2019-03-17T02:46:37.676Z,10.70
2019-03-17T02:48:41.567Z,10.70
2019-03-17T02:50:45.406Z,10.70
2019-03-17T02:52:49.244Z,10.60
2019-03-17T02:54:53.203Z,10.70
2019-03-17T02:56:57.190Z,10.70
2019-03-17T02:59:01.104Z,10.60
2019-03-17T03:01:05.528Z,10.60
2019-03-17T03:03:09.452Z,10.60
2019-03-17T03:05:13.321Z,10.70
2019-03-17T03:07:17.234Z,10.70
2019-03-17T03:09:21.064Z,10.70
2019-03-17T03:11:24.921Z,10.70
2019-03-17T03:13:28.791Z,10.70
2019-03-17T03:15:32.730Z,10.70
2019-03-17T03:17:36.588Z,10.70
2019-03-17T03:19:40.671Z,10.70
2019-03-17T03:21:44.666Z,10.60
2019-03-17T03:23:48.652Z,10.60
2019-03-17T03:25:52.523Z,10.60
2019-03-17T03:27:56.507Z,10.60
2019-03-17T03:30:00.533Z,10.50
2019-03-17T03:32:04.544Z,10.50
2019-03-17T03:34:08.521Z,10.60
2019-03-17T03:36:12.549Z,10.50
2019-03-17T03:38:16.418Z,10.50
2019-03-17T03:40:20.326Z,10.60
2019-03-17T03:42:24.371Z,10.60
2019-03-17T03:44:28.208Z,10.60
2019-03-17T03:46:32.145Z,10.60
2019-03-17T03:48:36.032Z,10.60
2019-03-17T03:50:39.919Z,10.60
2019-03-17T03:52:43.805Z,10.60
2019-03-17T03:54:47.740Z,10.60
2019-03-17T03:56:51.652Z,10.50
2019-03-17T03:58:55.579Z,10.60
2019-03-17T04:00:59.421Z,10.60
2019-03-17T04:03:03.397Z,10.50
2019-03-17T04:05:07.686Z,10.50
2019-03-17T04:07:11.731Z,10.40
2019-03-17T04:09:15.655Z,10.40
2019-03-17T04:11:19.733Z,10.30
2019-03-17T04:13:23.651Z,10.30
2019-03-17T04:15:27.494Z,10.20
2019-03-17T04:17:31.643Z,10.30
2019-03-17T04:19:35.491Z,10.30
2019-03-17T04:21:39.403Z,10.30
2019-03-17T04:23:43.360Z,10.30
2019-03-17T04:25:47.357Z,10.30
2019-03-17T04:27:51.206Z,10.30
2019-03-17T04:29:55.235Z,10.20
2019-03-17T04:31:59.349Z,10.30
2019-03-17T04:34:03.200Z,10.40
2019-03-17T04:36:07.220Z,10.40
2019-03-17T04:38:11.083Z,10.40
2019-03-17T04:40:20.831Z,10.40
2019-03-17T04:42:25.011Z,10.40
2019-03-17T04:44:28.895Z,10.50
2019-03-17T04:46:32.768Z,10.50
2019-03-17T04:48:36.790Z,10.50
2019-03-17T04:50:40.763Z,10.50
2019-03-17T04:52:44.720Z,10.60
2019-03-17T04:54:48.583Z,10.60
2019-03-17T04:56:52.439Z,10.60
2019-03-17T04:58:56.295Z,10.60
2019-03-17T05:01:00.256Z,10.60
2019-03-17T05:03:04.192Z,10.70
2019-03-17T05:05:08.430Z,10.60
2019-03-17T05:07:12.361Z,10.60
2019-03-17T05:09:16.317Z,10.70
2019-03-17T05:11:20.162Z,10.60
2019-03-17T05:13:24.156Z,10.60
2019-03-17T05:15:28.224Z,10.60
2019-03-17T05:17:32.081Z,10.60
2019-03-17T05:19:38.737Z,10.60
2019-03-17T05:21:42.583Z,10.50
2019-03-17T05:23:46.932Z,10.50
2019-03-17T05:25:50.772Z,10.40
2019-03-17T05:27:54.720Z,10.40
2019-03-17T05:29:58.747Z,10.20
2019-03-17T05:32:02.591Z,10.20
2019-03-17T05:34:06.589Z,10.10
2019-03-17T05:36:10.479Z,10.10
2019-03-17T05:38:14.407Z,10.10
2019-03-17T05:40:18.275Z,10.10
2019-03-17T05:42:22.225Z,10.10
2019-03-17T05:44:26.136Z,10.00
2019-03-17T05:46:30.291Z,10.00
2019-03-17T05:48:34.220Z,9.90
2019-03-17T05:50:38.085Z,9.80
2019-03-17T05:52:42.099Z,9.90
2019-03-17T05:54:46.002Z,9.80
2019-03-17T05:56:49.850Z,9.70
2019-03-17T05:58:53.766Z,9.60
2019-03-17T06:00:57.777Z,9.50
2019-03-17T06:03:01.677Z,9.40
2019-03-17T06:05:06.361Z,9.40
2019-03-17T06:07:18.508Z,9.40
2019-03-17T06:09:15.902Z,9.40
2019-03-17T06:11:19.891Z,9.30
2019-03-17T06:13:23.821Z,9.30
2019-03-17T06:15:27.663Z,9.30
2019-03-17T06:17:31.511Z,9.30
2019-03-17T06:19:35.695Z,9.30
2019-03-17T06:21:40.747Z,9.30
2019-03-17T06:23:44.647Z,9.30
2019-03-17T06:25:48.513Z,9.30
2019-03-17T06:27:52.343Z,9.30
2019-03-17T06:29:56.335Z,9.30
2019-03-17T06:32:00.196Z,9.30
2019-03-17T06:34:04.123Z,9.30
2019-03-17T06:36:08.052Z,9.30
2019-03-17T06:38:11.903Z,9.20
2019-03-17T06:40:16.097Z,9.10
2019-03-17T06:42:20.123Z,9.10
2019-03-17T06:44:23.983Z,9.20
2019-03-17T06:46:27.855Z,9.20
2019-03-17T06:48:31.809Z,9.10
2019-03-17T06:50:35.644Z,9.20
2019-03-17T06:52:39.493Z,9.20
2019-03-17T06:57:31.286Z,8.80
2019-03-17T06:59:54.375Z,9.10
2019-03-17T07:02:17.492Z,6.90
2019-03-17T07:04:40.520Z,6.50
2019-03-17T07:07:03.563Z,6.30
2019-03-17T07:12:14.606Z,6.10
2019-03-17T07:14:30.075Z,6.00
2019-03-17T07:16:44.163Z,6.30
2019-03-17T07:19:07.214Z,6.20
2019-03-17T07:21:30.285Z,6.30
2019-03-17T07:26:22.042Z,5.80
2019-03-17T07:29:04.237Z,6.60
2019-03-17T07:31:27.282Z,6.60
2019-03-17T07:33:50.646Z,6.70
2019-03-17T07:36:13.719Z,6.50
2019-03-17T07:38:36.752Z,6.60
2019-03-17T07:40:59.796Z,6.60
2019-03-17T07:43:24.643Z,6.30
2019-03-17T07:45:47.744Z,6.40
2019-03-17T07:50:40.117Z,6.40
2019-03-17T07:53:03.181Z,6.40
2019-03-17T07:55:26.255Z,6.10
2019-03-17T07:58:08.457Z,6.10
2019-03-17T08:00:32.487Z,6.30
2019-03-17T08:02:56.426Z,6.10
2019-03-17T08:05:19.479Z,6.30
2019-03-17T08:10:11.607Z,5.80
2019-03-17T08:12:34.789Z,6.10
2019-03-17T08:15:16.993Z,6.60
2019-03-17T08:17:32.423Z,6.00
2019-03-17T08:19:46.657Z,6.20
2019-03-17T08:22:09.707Z,6.30
2019-03-17T08:24:32.756Z,6.20
2019-03-17T08:29:24.800Z,6.30
2019-03-17T08:31:47.886Z,6.30
2019-03-17T08:34:10.933Z,6.50
2019-03-17T08:36:34.064Z,6.40
2019-03-17T08:38:57.138Z,6.40
2019-03-17T08:41:20.375Z,6.40
2019-03-17T08:44:02.621Z,6.40
2019-03-17T08:46:25.673Z,6.40
2019-03-17T08:48:48.731Z,6.40
2019-03-17T08:51:31.057Z,6.40
2019-03-17T08:53:55.784Z,6.40
2019-03-17T08:56:38.083Z,6.60
2019-03-17T08:59:01.132Z,6.70
2019-03-17T09:01:24.260Z,6.60
2019-03-17T09:03:47.335Z,6.70
2019-03-17T09:06:10.395Z,5.60
2019-03-17T09:08:35.342Z,6.60
2019-03-17T09:10:58.405Z,6.70
2019-03-17T09:13:21.447Z,6.70
2019-03-17T09:15:44.675Z,6.80
2019-03-17T09:17:58.246Z,6.70
2019-03-17T09:20:32.392Z,6.70
2019-03-17T09:22:46.110Z,6.90
2019-03-17T09:25:09.329Z,7.20
2019-03-17T09:27:32.407Z,7.10
2019-03-17T09:32:24.287Z,6.70
2019-03-17T09:35:06.528Z,6.60
2019-03-17T09:37:29.547Z,6.80
2019-03-17T09:39:52.611Z,6.80
2019-03-17T09:42:15.683Z,6.90
2019-03-17T09:44:38.747Z,6.90
2019-03-17T09:47:01.884Z,6.70
2019-03-17T09:49:24.939Z,7.00
2019-03-17T09:51:48.000Z,7.00
2019-03-17T09:54:11.023Z,7.10
2019-03-17T09:59:02.948Z,7.20
2019-03-17T10:01:26.003Z,7.10
2019-03-17T10:03:49.067Z,7.30
2019-03-17T10:06:12.112Z,7.20
2019-03-17T10:08:35.172Z,7.20
2019-03-17T10:11:17.548Z,7.30
2019-03-17T10:13:40.635Z,7.20
2019-03-17T10:16:03.771Z,7.30
2019-03-17T10:18:26.880Z,7.40
2019-03-17T10:20:40.409Z,7.40
2019-03-17T10:23:22.597Z,6.90
2019-03-17T10:28:14.926Z,7.40
2019-03-17T10:30:57.181Z,7.40
2019-03-17T10:33:20.221Z,7.50
2019-03-17T10:35:43.245Z,7.60
2019-03-17T10:38:25.459Z,7.60
2019-03-17T10:43:32.403Z,7.90
2019-03-17T10:45:55.447Z,7.80
2019-03-17T10:48:18.484Z,8.10
2019-03-17T10:50:49.557Z,8.20
2019-03-17T10:53:25.536Z,8.20
2019-03-17T10:55:48.587Z,8.30
2019-03-17T10:58:11.643Z,7.30
2019-03-17T11:00:34.708Z,8.50
2019-03-17T11:02:57.770Z,8.60
2019-03-17T11:05:20.954Z,8.40
2019-03-17T11:07:44.064Z,8.30
2019-03-17T11:10:07.262Z,8.30
2019-03-17T11:12:30.495Z,8.20
2019-03-17T11:14:53.610Z,8.60
2019-03-17T11:17:16.685Z,8.50
2019-03-17T11:19:30.439Z,8.60
2019-03-17T11:21:53.479Z,8.60
2019-03-17T11:26:45.541Z,8.90
2019-03-17T11:29:08.619Z,8.80
2019-03-17T11:31:31.689Z,9.00
2019-03-17T11:33:54.763Z,9.00
2019-03-17T11:36:17.816Z,9.20
2019-03-17T11:38:40.913Z,8.90
2019-03-17T11:41:04.086Z,9.20
2019-03-17T11:43:27.219Z,9.40
2019-03-17T11:45:50.403Z,9.80
2019-03-17T11:48:32.846Z,10.50
2019-03-17T11:50:56.624Z,10.50
2019-03-17T11:53:19.844Z,10.00
2019-03-17T11:55:42.926Z,9.40
2019-03-17T11:58:25.195Z,9.00
2019-03-17T12:00:48.374Z,8.90
2019-03-17T12:03:11.443Z,8.90
2019-03-17T12:05:34.575Z,8.80
2019-03-17T12:07:57.706Z,8.70
2019-03-17T12:10:39.916Z,8.70
2019-03-17T12:15:31.644Z,9.60
2019-03-17T12:18:13.870Z,10.20
2019-03-17T12:20:28.109Z,10.60
2019-03-17T12:23:10.345Z,10.10
2019-03-17T12:25:33.761Z,9.70
2019-03-17T12:28:15.959Z,8.70
2019-03-17T12:33:26.699Z,8.80
2019-03-17T12:35:49.779Z,8.80
2019-03-17T12:38:12.827Z,9.00
2019-03-17T12:40:55.141Z,8.80
2019-03-17T12:43:18.309Z,9.10
2019-03-17T12:45:41.370Z,9.80
2019-03-17T12:48:23.757Z,9.50
2019-03-17T12:50:46.847Z,10.10
2019-03-17T12:55:52.222Z,9.80
2019-03-17T12:58:15.256Z,10.20
2019-03-17T13:00:38.357Z,10.60
2019-03-17T13:03:01.516Z,10.80
2019-03-17T13:05:43.701Z,11.30
2019-03-17T13:08:25.976Z,11.70
2019-03-17T13:11:08.153Z,11.80
2019-03-17T13:18:50.043Z,11.70
2019-03-17T13:21:04.479Z,11.40
2019-03-17T13:23:46.688Z,11.30
2019-03-17T13:31:27.171Z,10.20
2019-03-17T13:34:09.386Z,9.90
2019-03-17T13:36:32.437Z,10.00
2019-03-17T13:38:55.492Z,9.50
2019-03-17T13:41:18.743Z,9.50
2019-03-17T13:44:01.037Z,9.70
2019-03-17T13:46:43.432Z,9.20
2019-03-17T13:49:06.477Z,9.10
2019-03-17T13:51:29.531Z,9.00
2019-03-17T13:56:21.379Z,9.30
2019-03-17T13:58:44.505Z,9.10
2019-03-17T14:01:07.601Z,9.40
2019-03-17T14:03:30.688Z,9.10
2019-03-17T14:05:53.724Z,9.10
2019-03-17T14:10:45.483Z,8.70
2019-03-17T14:13:08.534Z,8.90
2019-03-17T14:15:51.359Z,8.80
2019-03-17T14:23:19.254Z,9.20
2019-03-17T14:25:32.694Z,9.70
2019-03-17T14:28:14.895Z,10.80
2019-03-17T14:30:37.951Z,11.40
2019-03-17T14:33:01.073Z,10.90
2019-03-17T14:35:43.280Z,10.50
2019-03-17T14:38:06.400Z,10.30
2019-03-17T14:40:53.219Z,9.70
2019-03-17T14:43:13.376Z,9.50
2019-03-17T14:45:36.616Z,9.40
2019-03-17T14:50:28.739Z,9.00
2019-03-17T14:53:10.952Z,8.70
2019-03-17T14:55:53.129Z,8.50
2019-03-17T14:58:16.238Z,8.50
2019-03-17T15:00:39.402Z,8.40
2019-03-17T15:05:51.879Z,8.30
2019-03-17T15:08:14.923Z,8.50
2019-03-17T15:10:37.986Z,8.70
2019-03-17T15:15:29.734Z,9.20
2019-03-17T15:17:52.848Z,9.20
2019-03-17T15:20:35.664Z,8.70
2019-03-17T15:25:52.692Z,8.50
2019-03-17T15:28:15.771Z,8.40
2019-03-17T15:30:38.830Z,7.70
2019-03-17T15:33:01.995Z,7.20
2019-03-17T15:35:25.152Z,6.60
2019-03-17T15:38:07.549Z,6.40
2019-03-17T15:40:30.720Z,6.30
2019-03-17T15:42:55.528Z,6.40
2019-03-17T15:45:18.727Z,6.70
2019-03-17T15:48:03.953Z,6.80
2019-03-17T15:52:55.121Z,7.30
2019-03-17T15:55:18.258Z,7.70
2019-03-17T15:57:41.387Z,7.60
2019-03-17T16:03:13.532Z,7.70
2019-03-17T16:05:27.151Z,7.70
2019-03-17T16:07:50.244Z,7.80
2019-03-17T16:10:14.099Z,7.80
2019-03-17T16:12:56.392Z,7.70
2019-03-17T16:15:19.515Z,7.70
2019-03-17T16:17:42.601Z,7.90
2019-03-17T16:22:54.588Z,7.90
2019-03-17T16:25:08.512Z,8.20
2019-03-17T16:27:31.561Z,8.10
2019-03-17T16:30:13.755Z,8.00
2019-03-17T16:32:36.891Z,8.10
2019-03-17T16:35:19.137Z,8.00
2019-03-17T16:37:45.086Z,7.90
2019-03-17T16:43:10.723Z,7.80
2019-03-17T16:48:23.235Z,8.70
2019-03-17T16:50:46.335Z,8.70
2019-03-17T16:53:20.267Z,8.70
2019-03-17T16:58:22.491Z,8.80
2019-03-17T17:03:14.480Z,8.20
2019-03-17T17:05:56.667Z,8.10
2019-03-17T17:08:19.715Z,8.00
2019-03-17T17:13:12.105Z,8.10
2019-03-17T17:15:35.275Z,8.00
2019-03-17T17:20:47.755Z,8.00
2019-03-17T17:23:29.960Z,7.50
2019-03-17T17:25:52.952Z,7.90
2019-03-17T17:28:16.081Z,7.80
2019-03-17T17:30:58.312Z,7.80
2019-03-17T17:36:09.759Z,7.80
2019-03-17T17:38:32.843Z,7.70
2019-03-17T17:41:15.039Z,7.60
2019-03-17T17:43:57.245Z,7.70
2019-03-17T17:46:20.327Z,7.70
2019-03-17T17:48:43.392Z,7.60
2019-03-17T17:51:06.459Z,7.60
2019-03-17T17:53:29.511Z,7.60
2019-03-17T17:56:11.964Z,7.50
2019-03-17T17:58:35.085Z,7.50
2019-03-17T18:00:58.150Z,7.50
2019-03-17T18:03:51.208Z,7.50
2019-03-17T18:08:33.781Z,7.40
2019-03-17T18:10:56.846Z,7.40
2019-03-17T18:13:19.941Z,7.40
2019-03-17T18:15:43.005Z,7.30
2019-03-17T18:18:06.047Z,7.30
2019-03-17T18:20:29.205Z,7.50
2019-03-17T18:22:52.421Z,7.40
2019-03-17T18:25:15.519Z,7.30
2019-03-17T18:27:29.615Z,7.30
2019-03-17T18:30:11.888Z,7.10
2019-03-17T18:32:35.165Z,7.20
2019-03-17T18:34:58.232Z,7.20
2019-03-17T18:37:21.384Z,7.20
2019-03-17T18:39:44.492Z,7.20
2019-03-17T18:42:07.638Z,7.10
2019-03-17T18:44:30.715Z,7.10
2019-03-17T18:49:42.062Z,7.10
2019-03-17T18:52:24.295Z,7.10
2019-03-17T18:54:47.344Z,7.00
2019-03-17T18:57:10.479Z,6.90
2019-03-17T18:59:52.934Z,6.90
2019-03-17T19:02:16.120Z,6.90
2019-03-17T19:04:39.161Z,6.90
2019-03-17T19:07:02.245Z,6.90
2019-03-17T19:09:25.289Z,6.90
2019-03-17T19:11:48.367Z,6.90
2019-03-17T19:14:30.560Z,6.80
2019-03-17T19:16:53.622Z,6.90
2019-03-17T19:19:16.684Z,6.80
2019-03-17T19:21:39.748Z,6.20
2019-03-17T19:24:02.821Z,6.70
2019-03-17T19:26:25.947Z,6.20
2019-03-17T19:28:39.665Z,6.70
2019-03-17T19:30:53.575Z,6.60
2019-03-17T19:33:16.660Z,6.60
2019-03-17T19:35:39.743Z,6.70
2019-03-17T19:38:02.898Z,6.60
2019-03-17T19:40:25.995Z,6.40
2019-03-17T19:43:08.212Z,6.30
2019-03-17T19:45:50.471Z,6.30
2019-03-17T19:48:13.649Z,5.30
2019-03-17T19:50:36.742Z,6.30
2019-03-17T19:53:20.860Z,6.20
2019-03-17T19:55:43.932Z,6.10
2019-03-17T19:58:26.217Z,6.00
2019-03-17T20:00:49.343Z,6.00
2019-03-17T20:03:12.550Z,6.00
2019-03-17T20:05:35.610Z,6.00
2019-03-17T20:07:58.656Z,5.90
2019-03-17T20:10:22.084Z,6.00
2019-03-17T20:12:45.199Z,5.90
2019-03-17T20:15:08.419Z,5.90
2019-03-17T20:17:31.568Z,6.30
2019-03-17T20:19:54.642Z,5.10
2019-03-17T20:22:17.724Z,5.80
2019-03-17T20:24:40.860Z,5.80
2019-03-17T20:27:04.093Z,5.70
2019-03-17T20:29:17.885Z,5.80
2019-03-17T20:31:40.948Z,5.70
2019-03-17T20:36:53.332Z,5.70
2019-03-17T20:39:16.417Z,5.70
2019-03-17T20:41:39.529Z,5.70
2019-03-17T20:44:03.958Z,5.60
2019-03-17T20:46:27.079Z,5.60
2019-03-17T20:48:50.174Z,5.60
2019-03-17T20:51:13.232Z,6.10
2019-03-17T20:53:36.287Z,5.60
2019-03-17T20:55:59.371Z,5.60
2019-03-17T20:58:22.411Z,5.60
2019-03-17T21:00:45.551Z,5.60
2019-03-17T21:03:08.608Z,5.60
2019-03-17T21:08:00.711Z,5.70
2019-03-17T21:10:23.771Z,5.70
2019-03-17T21:13:06.200Z,5.60
2019-03-17T21:15:29.284Z,5.60
2019-03-17T21:20:20.983Z,5.60
2019-03-17T21:22:44.024Z,5.50
2019-03-17T21:25:26.344Z,5.50
2019-03-17T21:27:49.398Z,5.50
2019-03-17T21:30:03.336Z,5.50
2019-03-17T21:32:45.753Z,5.40
2019-03-17T21:38:30.768Z,5.40
2019-03-17T21:41:12.953Z,5.40
2019-03-17T21:43:59.705Z,5.40
2019-03-17T21:46:19.962Z,5.50
2019-03-17T21:48:43.023Z,5.40
2019-03-17T21:51:25.244Z,5.40
2019-03-17T21:53:48.303Z,5.40
2019-03-17T21:56:11.469Z,5.50
2019-03-17T21:58:53.891Z,5.40
2019-03-17T22:01:16.943Z,5.40
2019-03-17T22:03:40.021Z,5.30
2019-03-17T22:06:03.113Z,5.30
2019-03-17T22:08:26.232Z,5.30
2019-03-17T22:10:49.307Z,5.30
2019-03-17T22:13:12.356Z,5.30
2019-03-17T22:15:35.412Z,5.20
2019-03-17T22:17:58.534Z,5.30
2019-03-17T22:20:21.597Z,5.20
2019-03-17T22:22:44.710Z,5.20
2019-03-17T22:28:10.619Z,5.30
2019-03-17T22:30:52.834Z,5.30
2019-03-17T22:33:15.887Z,5.30
2019-03-17T22:35:38.923Z,5.30
2019-03-17T22:38:01.968Z,5.30
2019-03-17T22:40:44.258Z,5.20
2019-03-17T22:43:07.310Z,5.30
2019-03-17T22:45:49.612Z,5.30
2019-03-17T22:48:12.769Z,5.20
2019-03-17T22:50:54.963Z,5.20
2019-03-17T22:53:37.132Z,5.20
2019-03-17T22:58:28.589Z,5.10
2019-03-17T23:03:41.457Z,5.30
2019-03-17T23:06:23.871Z,5.30
2019-03-17T23:08:46.916Z,5.30
2019-03-17T23:11:09.979Z,5.30
2019-03-17T23:13:33.035Z,5.30
2019-03-17T23:16:15.240Z,5.40
2019-03-17T23:18:38.336Z,5.50
2019-03-17T23:21:20.609Z,5.40
2019-03-17T23:23:43.736Z,5.30
2019-03-17T23:26:17.685Z,5.30
2019-03-17T23:28:50.796Z,5.30
2019-03-17T23:31:06.219Z,5.40
2019-03-17T23:33:20.472Z,4.50
2019-03-17T23:35:43.593Z,5.40
2019-03-17T23:38:06.674Z,5.30
2019-03-17T23:40:29.727Z,5.20
2019-03-17T23:42:52.834Z,5.00
2019-03-17T23:45:16.065Z,4.80
2019-03-17T23:47:39.187Z,4.70
2019-03-17T23:50:02.307Z,3.90
2019-03-17T23:52:25.357Z,3.60
2019-03-17T23:54:48.436Z,3.70
